sensor_id;sensor_type;location;lat;lon;timestamp;P1;durP1;ratioP1;P2;durP2;ratioP2
48203;SDS011;33994;50.998;5.864;2023-03-04T00:02:11;60.67;;;23.45;;
48203;SDS011;33994;50.998;5.864;2023-03-04T00:05:14;57.63;;;21.75;;
48203;SDS011;33994;50.998;5.864;2023-03-04T00:08:17;52.30;;;20.63;;
48203;SDS011;33994;50.998;5.864;2023-03-04T00:11:20;57.67;;;21.88;;
48203;SDS011;33994;50.998;5.864;2023-03-04T00:16:42;63.80;;;21.00;;
48203;SDS011;33994;50.998;5.864;2023-03-04T00:19:45;54.47;;;21.48;;
48203;SDS011;33994;50.998;5.864;2023-03-04T00:22:49;51.75;;;21.33;;
48203;SDS011;33994;50.998;5.864;2023-03-04T00:25:52;47.75;;;19.25;;
48203;SDS011;33994;50.998;5.864;2023-03-04T00:28:55;50.17;;;21.48;;
48203;SDS011;33994;50.998;5.864;2023-03-04T00:31:59;57.10;;;22.55;;
48203;SDS011;33994;50.998;5.864;2023-03-04T00:35:03;51.78;;;20.73;;
48203;SDS011;33994;50.998;5.864;2023-03-04T00:38:07;54.30;;;22.65;;
48203;SDS011;33994;50.998;5.864;2023-03-04T00:41:10;50.30;;;20.50;;
48203;SDS011;33994;50.998;5.864;2023-03-04T00:44:13;50.72;;;21.17;;
48203;SDS011;33994;50.998;5.864;2023-03-04T00:47:17;51.67;;;20.05;;
48203;SDS011;33994;50.998;5.864;2023-03-04T00:50:20;50.50;;;20.70;;
48203;SDS011;33994;50.998;5.864;2023-03-04T00:53:24;57.15;;;22.63;;
48203;SDS011;33994;50.998;5.864;2023-03-04T00:56:27;51.03;;;21.05;;
48203;SDS011;33994;50.998;5.864;2023-03-04T00:59:30;53.55;;;23.02;;
48203;SDS011;33994;50.998;5.864;2023-03-04T01:02:35;51.33;;;21.25;;
48203;SDS011;33994;50.998;5.864;2023-03-04T01:05:38;58.45;;;22.45;;
48203;SDS011;33994;50.998;5.864;2023-03-04T01:08:41;62.65;;;24.55;;
48203;SDS011;33994;50.998;5.864;2023-03-04T01:11:45;57.63;;;22.02;;
48203;SDS011;33994;50.998;5.864;2023-03-04T01:14:48;55.78;;;22.73;;
48203;SDS011;33994;50.998;5.864;2023-03-04T01:17:52;54.60;;;21.63;;
48203;SDS011;33994;50.998;5.864;2023-03-04T01:20:55;55.20;;;22.98;;
48203;SDS011;33994;50.998;5.864;2023-03-04T01:23:59;55.35;;;22.15;;
48203;SDS011;33994;50.998;5.864;2023-03-04T01:27:02;57.13;;;22.33;;
48203;SDS011;33994;50.998;5.864;2023-03-04T01:30:06;56.47;;;22.05;;
48203;SDS011;33994;50.998;5.864;2023-03-04T01:33:11;60.38;;;24.90;;
48203;SDS011;33994;50.998;5.864;2023-03-04T01:36:15;60.45;;;22.02;;
48203;SDS011;33994;50.998;5.864;2023-03-04T01:39:18;64.65;;;23.60;;
48203;SDS011;33994;50.998;5.864;2023-03-04T01:42:21;57.50;;;23.48;;
48203;SDS011;33994;50.998;5.864;2023-03-04T01:45:25;61.22;;;23.52;;
48203;SDS011;33994;50.998;5.864;2023-03-04T01:48:31;59.35;;;23.70;;
48203;SDS011;33994;50.998;5.864;2023-03-04T01:51:36;40.65;;;16.40;;
48203;SDS011;33994;50.998;5.864;2023-03-04T01:54:40;58.10;;;21.98;;
48203;SDS011;33994;50.998;5.864;2023-03-04T01:57:43;57.13;;;22.80;;
48203;SDS011;33994;50.998;5.864;2023-03-04T02:00:47;48.50;;;20.90;;
48203;SDS011;33994;50.998;5.864;2023-03-04T02:03:52;53.75;;;22.75;;
48203;SDS011;33994;50.998;5.864;2023-03-04T02:06:55;50.08;;;21.27;;
48203;SDS011;33994;50.998;5.864;2023-03-04T02:10:00;51.88;;;20.08;;
48203;SDS011;33994;50.998;5.864;2023-03-04T02:13:04;49.60;;;19.98;;
48203;SDS011;33994;50.998;5.864;2023-03-04T02:16:08;51.97;;;21.50;;
48203;SDS011;33994;50.998;5.864;2023-03-04T02:19:14;57.92;;;21.50;;
48203;SDS011;33994;50.998;5.864;2023-03-04T02:22:21;54.22;;;22.05;;
48203;SDS011;33994;50.998;5.864;2023-03-04T02:25:25;53.63;;;20.02;;
48203;SDS011;33994;50.998;5.864;2023-03-04T02:28:33;52.45;;;20.90;;
48203;SDS011;33994;50.998;5.864;2023-03-04T02:31:36;49.88;;;18.52;;
48203;SDS011;33994;50.998;5.864;2023-03-04T02:34:43;43.92;;;18.23;;
48203;SDS011;33994;50.998;5.864;2023-03-04T02:37:48;46.83;;;18.48;;
48203;SDS011;33994;50.998;5.864;2023-03-04T02:40:51;44.45;;;18.95;;
48203;SDS011;33994;50.998;5.864;2023-03-04T02:43:59;43.83;;;17.65;;
48203;SDS011;33994;50.998;5.864;2023-03-04T02:47:02;48.20;;;19.48;;
48203;SDS011;33994;50.998;5.864;2023-03-04T02:50:07;47.70;;;18.58;;
48203;SDS011;33994;50.998;5.864;2023-03-04T02:53:12;47.20;;;17.77;;
48203;SDS011;33994;50.998;5.864;2023-03-04T02:56:15;50.85;;;19.33;;
48203;SDS011;33994;50.998;5.864;2023-03-04T02:59:20;48.08;;;18.20;;
48203;SDS011;33994;50.998;5.864;2023-03-04T03:02:25;44.60;;;19.33;;
48203;SDS011;33994;50.998;5.864;2023-03-04T03:05:29;37.65;;;16.02;;
48203;SDS011;33994;50.998;5.864;2023-03-04T03:08:34;40.85;;;17.50;;
48203;SDS011;33994;50.998;5.864;2023-03-04T03:11:37;42.95;;;18.17;;
48203;SDS011;33994;50.998;5.864;2023-03-04T03:14:41;44.25;;;19.05;;
48203;SDS011;33994;50.998;5.864;2023-03-04T03:17:45;40.75;;;17.30;;
48203;SDS011;33994;50.998;5.864;2023-03-04T03:20:48;41.75;;;16.00;;
48203;SDS011;33994;50.998;5.864;2023-03-04T03:23:51;43.78;;;18.02;;
48203;SDS011;33994;50.998;5.864;2023-03-04T03:26:54;45.38;;;17.48;;
48203;SDS011;33994;50.998;5.864;2023-03-04T03:29:59;43.60;;;18.20;;
48203;SDS011;33994;50.998;5.864;2023-03-04T03:33:03;44.30;;;16.77;;
48203;SDS011;33994;50.998;5.864;2023-03-04T03:36:06;39.80;;;17.33;;
48203;SDS011;33994;50.998;5.864;2023-03-04T03:39:10;39.38;;;16.88;;
48203;SDS011;33994;50.998;5.864;2023-03-04T03:42:13;45.03;;;18.88;;
48203;SDS011;33994;50.998;5.864;2023-03-04T03:45:17;48.55;;;19.35;;
48203;SDS011;33994;50.998;5.864;2023-03-04T03:48:21;43.15;;;18.02;;
48203;SDS011;33994;50.998;5.864;2023-03-04T03:51:24;44.47;;;18.63;;
48203;SDS011;33994;50.998;5.864;2023-03-04T03:54:27;45.50;;;18.55;;
48203;SDS011;33994;50.998;5.864;2023-03-04T03:57:30;47.60;;;17.73;;
48203;SDS011;33994;50.998;5.864;2023-03-04T04:00:34;45.95;;;17.50;;
48203;SDS011;33994;50.998;5.864;2023-03-04T04:03:36;44.08;;;17.92;;
48203;SDS011;33994;50.998;5.864;2023-03-04T04:06:39;46.55;;;17.02;;
48203;SDS011;33994;50.998;5.864;2023-03-04T04:09:43;39.03;;;15.55;;
48203;SDS011;33994;50.998;5.864;2023-03-04T04:12:46;43.25;;;16.65;;
48203;SDS011;33994;50.998;5.864;2023-03-04T04:15:51;45.33;;;17.63;;
48203;SDS011;33994;50.998;5.864;2023-03-04T04:18:54;35.10;;;14.95;;
48203;SDS011;33994;50.998;5.864;2023-03-04T04:21:57;36.38;;;12.85;;
48203;SDS011;33994;50.998;5.864;2023-03-04T04:25:00;39.08;;;13.13;;
48203;SDS011;33994;50.998;5.864;2023-03-04T04:28:04;34.55;;;12.15;;
48203;SDS011;33994;50.998;5.864;2023-03-04T04:31:08;38.75;;;13.18;;
48203;SDS011;33994;50.998;5.864;2023-03-04T04:34:11;41.60;;;11.80;;
48203;SDS011;33994;50.998;5.864;2023-03-04T04:37:14;31.27;;;8.70;;
48203;SDS011;33994;50.998;5.864;2023-03-04T04:40:17;22.63;;;7.30;;
48203;SDS011;33994;50.998;5.864;2023-03-04T04:43:21;32.20;;;7.68;;
48203;SDS011;33994;50.998;5.864;2023-03-04T04:46:25;27.77;;;7.30;;
48203;SDS011;33994;50.998;5.864;2023-03-04T04:49:29;23.77;;;6.45;;
48203;SDS011;33994;50.998;5.864;2023-03-04T04:52:32;23.35;;;6.47;;
48203;SDS011;33994;50.998;5.864;2023-03-04T04:55:35;29.52;;;6.03;;
48203;SDS011;33994;50.998;5.864;2023-03-04T04:58:38;20.60;;;5.45;;
48203;SDS011;33994;50.998;5.864;2023-03-04T05:01:43;27.02;;;5.93;;
48203;SDS011;33994;50.998;5.864;2023-03-04T05:04:46;27.48;;;6.05;;
48203;SDS011;33994;50.998;5.864;2023-03-04T05:07:50;19.70;;;5.22;;
48203;SDS011;33994;50.998;5.864;2023-03-04T05:10:52;17.10;;;4.95;;
48203;SDS011;33994;50.998;5.864;2023-03-04T05:13:55;25.10;;;5.55;;
48203;SDS011;33994;50.998;5.864;2023-03-04T05:17:00;16.75;;;4.97;;
48203;SDS011;33994;50.998;5.864;2023-03-04T05:20:03;19.52;;;4.68;;
48203;SDS011;33994;50.998;5.864;2023-03-04T05:23:07;15.50;;;4.45;;
48203;SDS011;33994;50.998;5.864;2023-03-04T05:26:10;21.48;;;4.93;;
48203;SDS011;33994;50.998;5.864;2023-03-04T05:29:16;18.75;;;4.78;;
48203;SDS011;33994;50.998;5.864;2023-03-04T05:32:20;27.52;;;6.68;;
48203;SDS011;33994;50.998;5.864;2023-03-04T05:35:23;20.60;;;3.70;;
48203;SDS011;33994;50.998;5.864;2023-03-04T05:38:26;17.80;;;4.18;;
48203;SDS011;33994;50.998;5.864;2023-03-04T05:41:29;17.55;;;4.00;;
48203;SDS011;33994;50.998;5.864;2023-03-04T05:44:32;22.05;;;4.43;;
48203;SDS011;33994;50.998;5.864;2023-03-04T05:47:37;15.38;;;3.35;;
48203;SDS011;33994;50.998;5.864;2023-03-04T05:50:40;17.63;;;3.97;;
48203;SDS011;33994;50.998;5.864;2023-03-04T05:53:43;20.00;;;3.35;;
48203;SDS011;33994;50.998;5.864;2023-03-04T05:56:46;12.10;;;2.50;;
48203;SDS011;33994;50.998;5.864;2023-03-04T05:59:49;12.77;;;2.97;;
48203;SDS011;33994;50.998;5.864;2023-03-04T06:02:53;14.13;;;3.17;;
48203;SDS011;33994;50.998;5.864;2023-03-04T06:05:57;12.75;;;2.83;;
48203;SDS011;33994;50.998;5.864;2023-03-04T06:09:00;17.95;;;2.70;;
48203;SDS011;33994;50.998;5.864;2023-03-04T06:12:03;17.35;;;2.83;;
48203;SDS011;33994;50.998;5.864;2023-03-04T06:15:07;18.95;;;2.95;;
48203;SDS011;33994;50.998;5.864;2023-03-04T06:18:12;16.33;;;2.78;;
48203;SDS011;33994;50.998;5.864;2023-03-04T06:21:15;9.27;;;2.20;;
48203;SDS011;33994;50.998;5.864;2023-03-04T06:24:18;11.38;;;1.90;;
48203;SDS011;33994;50.998;5.864;2023-03-04T06:27:21;13.15;;;2.10;;
48203;SDS011;33994;50.998;5.864;2023-03-04T06:30:24;17.67;;;2.25;;
48203;SDS011;33994;50.998;5.864;2023-03-04T06:33:28;15.40;;;2.08;;
48203;SDS011;33994;50.998;5.864;2023-03-04T06:36:31;21.27;;;2.45;;
48203;SDS011;33994;50.998;5.864;2023-03-04T06:39:34;12.98;;;3.03;;
48203;SDS011;33994;50.998;5.864;2023-03-04T06:42:38;10.90;;;1.80;;
48203;SDS011;33994;50.998;5.864;2023-03-04T06:45:41;13.25;;;2.10;;
48203;SDS011;33994;50.998;5.864;2023-03-04T06:48:46;11.75;;;2.80;;
48203;SDS011;33994;50.998;5.864;2023-03-04T06:51:49;13.23;;;2.83;;
48203;SDS011;33994;50.998;5.864;2023-03-04T06:54:52;18.88;;;2.85;;
48203;SDS011;33994;50.998;5.864;2023-03-04T06:57:55;12.82;;;2.10;;
48203;SDS011;33994;50.998;5.864;2023-03-04T07:01:07;16.58;;;3.15;;
48203;SDS011;33994;50.998;5.864;2023-03-04T07:04:13;12.95;;;2.22;;
48203;SDS011;33994;50.998;5.864;2023-03-04T07:07:16;19.77;;;2.65;;
48203;SDS011;33994;50.998;5.864;2023-03-04T07:10:19;11.90;;;2.45;;
48203;SDS011;33994;50.998;5.864;2023-03-04T07:13:23;10.07;;;2.50;;
48203;SDS011;33994;50.998;5.864;2023-03-04T07:16:25;14.40;;;2.20;;
48203;SDS011;33994;50.998;5.864;2023-03-04T07:19:30;9.32;;;1.65;;
48203;SDS011;33994;50.998;5.864;2023-03-04T07:22:33;14.07;;;2.85;;
48203;SDS011;33994;50.998;5.864;2023-03-04T07:25:36;15.27;;;2.00;;
48203;SDS011;33994;50.998;5.864;2023-03-04T07:28:39;10.63;;;1.95;;
48203;SDS011;33994;50.998;5.864;2023-03-04T07:31:42;18.23;;;2.42;;
48203;SDS011;33994;50.998;5.864;2023-03-04T07:34:47;13.80;;;2.10;;
48203;SDS011;33994;50.998;5.864;2023-03-04T07:37:50;12.63;;;3.08;;
48203;SDS011;33994;50.998;5.864;2023-03-04T07:40:54;15.45;;;1.80;;
48203;SDS011;33994;50.998;5.864;2023-03-04T07:43:58;9.18;;;1.85;;
48203;SDS011;33994;50.998;5.864;2023-03-04T07:47:01;13.30;;;1.98;;
48203;SDS011;33994;50.998;5.864;2023-03-04T07:50:06;11.80;;;2.00;;
48203;SDS011;33994;50.998;5.864;2023-03-04T07:53:11;15.77;;;1.80;;
48203;SDS011;33994;50.998;5.864;2023-03-04T07:56:14;8.40;;;2.05;;
48203;SDS011;33994;50.998;5.864;2023-03-04T07:59:18;7.93;;;1.90;;
48203;SDS011;33994;50.998;5.864;2023-03-04T08:02:22;14.95;;;2.47;;
48203;SDS011;33994;50.998;5.864;2023-03-04T08:05:26;8.35;;;1.52;;
48203;SDS011;33994;50.998;5.864;2023-03-04T08:08:29;18.02;;;2.70;;
48203;SDS011;33994;50.998;5.864;2023-03-04T08:11:33;11.15;;;2.30;;
48203;SDS011;33994;50.998;5.864;2023-03-04T08:14:38;11.48;;;2.78;;
48203;SDS011;33994;50.998;5.864;2023-03-04T08:17:41;7.90;;;2.10;;
48203;SDS011;33994;50.998;5.864;2023-03-04T08:20:45;12.73;;;2.40;;
48203;SDS011;33994;50.998;5.864;2023-03-04T08:23:48;8.48;;;2.42;;
48203;SDS011;33994;50.998;5.864;2023-03-04T08:26:52;16.98;;;3.05;;
48203;SDS011;33994;50.998;5.864;2023-03-04T08:29:56;15.43;;;1.65;;
48203;SDS011;33994;50.998;5.864;2023-03-04T08:32:59;15.13;;;2.25;;
48203;SDS011;33994;50.998;5.864;2023-03-04T08:36:04;16.23;;;2.50;;
48203;SDS011;33994;50.998;5.864;2023-03-04T08:39:10;10.77;;;1.98;;
48203;SDS011;33994;50.998;5.864;2023-03-04T08:42:14;16.50;;;3.33;;
48203;SDS011;33994;50.998;5.864;2023-03-04T08:45:18;10.55;;;2.72;;
48203;SDS011;33994;50.998;5.864;2023-03-04T08:48:21;10.57;;;2.05;;
48203;SDS011;33994;50.998;5.864;2023-03-04T08:51:27;9.50;;;2.50;;
48203;SDS011;33994;50.998;5.864;2023-03-04T08:54:30;12.68;;;2.03;;
48203;SDS011;33994;50.998;5.864;2023-03-04T08:57:34;10.80;;;2.45;;
48203;SDS011;33994;50.998;5.864;2023-03-04T09:00:38;17.88;;;3.78;;
48203;SDS011;33994;50.998;5.864;2023-03-04T09:03:42;9.20;;;2.50;;
48203;SDS011;33994;50.998;5.864;2023-03-04T09:06:46;10.88;;;2.20;;
48203;SDS011;33994;50.998;5.864;2023-03-04T09:09:49;15.75;;;3.72;;
48203;SDS011;33994;50.998;5.864;2023-03-04T09:12:52;12.45;;;2.03;;
48203;SDS011;33994;50.998;5.864;2023-03-04T09:15:55;11.23;;;1.98;;
48203;SDS011;33994;50.998;5.864;2023-03-04T09:19:00;18.85;;;2.10;;
48203;SDS011;33994;50.998;5.864;2023-03-04T09:22:04;8.18;;;1.90;;
48203;SDS011;33994;50.998;5.864;2023-03-04T09:25:10;8.02;;;2.38;;
48203;SDS011;33994;50.998;5.864;2023-03-04T09:28:15;7.10;;;1.30;;
48203;SDS011;33994;50.998;5.864;2023-03-04T09:31:19;5.97;;;1.63;;
48203;SDS011;33994;50.998;5.864;2023-03-04T09:34:21;6.50;;;2.13;;
48203;SDS011;33994;50.998;5.864;2023-03-04T09:37:26;5.38;;;2.03;;
48203;SDS011;33994;50.998;5.864;2023-03-04T09:40:29;9.77;;;1.98;;
48203;SDS011;33994;50.998;5.864;2023-03-04T09:43:35;6.22;;;1.90;;
48203;SDS011;33994;50.998;5.864;2023-03-04T09:46:41;10.73;;;1.60;;
48203;SDS011;33994;50.998;5.864;2023-03-04T09:49:47;10.73;;;2.10;;
48203;SDS011;33994;50.998;5.864;2023-03-04T09:53:02;14.18;;;3.08;;
48203;SDS011;33994;50.998;5.864;2023-03-04T09:56:08;10.10;;;2.20;;
48203;SDS011;33994;50.998;5.864;2023-03-04T09:59:15;9.77;;;1.83;;
48203;SDS011;33994;50.998;5.864;2023-03-04T10:02:25;5.88;;;1.45;;
48203;SDS011;33994;50.998;5.864;2023-03-04T10:05:38;6.00;;;1.70;;
48203;SDS011;33994;50.998;5.864;2023-03-04T10:08:49;6.22;;;1.65;;
48203;SDS011;33994;50.998;5.864;2023-03-04T10:11:58;7.63;;;2.05;;
48203;SDS011;33994;50.998;5.864;2023-03-04T10:15:05;7.75;;;1.80;;
48203;SDS011;33994;50.998;5.864;2023-03-04T10:18:20;7.43;;;1.55;;
48203;SDS011;33994;50.998;5.864;2023-03-04T10:21:25;9.15;;;1.75;;
48203;SDS011;33994;50.998;5.864;2023-03-04T10:24:35;4.22;;;1.77;;
48203;SDS011;33994;50.998;5.864;2023-03-04T10:27:38;6.28;;;1.83;;
48203;SDS011;33994;50.998;5.864;2023-03-04T10:30:45;6.75;;;1.77;;
48203;SDS011;33994;50.998;5.864;2023-03-04T10:33:52;7.28;;;2.05;;
48203;SDS011;33994;50.998;5.864;2023-03-04T10:36:57;8.93;;;1.77;;
48203;SDS011;33994;50.998;5.864;2023-03-04T10:40:03;7.60;;;2.30;;
48203;SDS011;33994;50.998;5.864;2023-03-04T10:43:12;10.10;;;2.42;;
48203;SDS011;33994;50.998;5.864;2023-03-04T10:46:16;7.05;;;1.90;;
48203;SDS011;33994;50.998;5.864;2023-03-04T10:49:23;18.27;;;2.20;;
48203;SDS011;33994;50.998;5.864;2023-03-04T10:52:28;11.13;;;2.20;;
48203;SDS011;33994;50.998;5.864;2023-03-04T10:55:42;6.68;;;2.22;;
48203;SDS011;33994;50.998;5.864;2023-03-04T10:58:46;7.13;;;2.40;;
48203;SDS011;33994;50.998;5.864;2023-03-04T11:01:49;8.65;;;2.92;;
48203;SDS011;33994;50.998;5.864;2023-03-04T11:04:53;5.20;;;1.77;;
48203;SDS011;33994;50.998;5.864;2023-03-04T11:07:58;4.18;;;1.30;;
48203;SDS011;33994;50.998;5.864;2023-03-04T11:11:09;5.68;;;1.60;;
48203;SDS011;33994;50.998;5.864;2023-03-04T11:14:23;7.25;;;1.90;;
48203;SDS011;33994;50.998;5.864;2023-03-04T11:17:30;4.43;;;1.73;;
48203;SDS011;33994;50.998;5.864;2023-03-04T11:20:44;7.47;;;2.17;;
48203;SDS011;33994;50.998;5.864;2023-03-04T11:23:51;6.80;;;1.30;;
48203;SDS011;33994;50.998;5.864;2023-03-04T11:27:00;4.07;;;1.33;;
48203;SDS011;33994;50.998;5.864;2023-03-04T11:30:23;2.55;;;1.20;;
48203;SDS011;33994;50.998;5.864;2023-03-04T11:33:32;5.55;;;1.02;;
48203;SDS011;33994;50.998;5.864;2023-03-04T11:36:46;7.55;;;1.92;;
48203;SDS011;33994;50.998;5.864;2023-03-04T11:39:57;9.00;;;1.58;;
48203;SDS011;33994;50.998;5.864;2023-03-04T11:43:04;4.30;;;1.58;;
48203;SDS011;33994;50.998;5.864;2023-03-04T11:46:19;8.15;;;1.60;;
48203;SDS011;33994;50.998;5.864;2023-03-04T11:53:24;6.10;;;1.58;;
48203;SDS011;33994;50.998;5.864;2023-03-04T11:56:35;11.77;;;2.10;;
48203;SDS011;33994;50.998;5.864;2023-03-04T11:59:51;7.07;;;1.65;;
48203;SDS011;33994;50.998;5.864;2023-03-04T12:03:14;7.82;;;1.70;;
48203;SDS011;33994;50.998;5.864;2023-03-04T12:06:34;4.82;;;1.80;;
48203;SDS011;33994;50.998;5.864;2023-03-04T12:09:54;5.28;;;1.33;;
48203;SDS011;33994;50.998;5.864;2023-03-04T12:13:16;4.78;;;1.42;;
48203;SDS011;33994;50.998;5.864;2023-03-04T12:16:36;4.90;;;1.33;;
48203;SDS011;33994;50.998;5.864;2023-03-04T12:20:01;4.68;;;1.60;;
48203;SDS011;33994;50.998;5.864;2023-03-04T12:23:25;8.90;;;1.35;;
48203;SDS011;33994;50.998;5.864;2023-03-04T12:26:38;5.30;;;1.27;;
48203;SDS011;33994;50.998;5.864;2023-03-04T12:29:48;5.03;;;1.40;;
48203;SDS011;33994;50.998;5.864;2023-03-04T12:33:01;5.05;;;1.27;;
48203;SDS011;33994;50.998;5.864;2023-03-04T12:36:13;5.80;;;1.33;;
48203;SDS011;33994;50.998;5.864;2023-03-04T12:39:25;5.30;;;1.15;;
48203;SDS011;33994;50.998;5.864;2023-03-04T12:42:37;5.57;;;1.33;;
48203;SDS011;33994;50.998;5.864;2023-03-04T12:45:48;4.55;;;1.73;;
48203;SDS011;33994;50.998;5.864;2023-03-04T12:52:42;4.40;;;1.83;;
48203;SDS011;33994;50.998;5.864;2023-03-04T12:55:51;9.90;;;3.85;;
48203;SDS011;33994;50.998;5.864;2023-03-04T12:58:56;7.82;;;1.98;;
48203;SDS011;33994;50.998;5.864;2023-03-04T13:02:03;7.85;;;2.95;;
48203;SDS011;33994;50.998;5.864;2023-03-04T13:05:32;5.80;;;1.92;;
48203;SDS011;33994;50.998;5.864;2023-03-04T13:08:49;2.65;;;1.60;;
48203;SDS011;33994;50.998;5.864;2023-03-04T13:12:02;6.85;;;1.92;;
48203;SDS011;33994;50.998;5.864;2023-03-04T13:18:30;4.82;;;1.80;;
48203;SDS011;33994;50.998;5.864;2023-03-04T13:21:35;4.15;;;1.52;;
48203;SDS011;33994;50.998;5.864;2023-03-04T13:24:49;2.30;;;1.40;;
48203;SDS011;33994;50.998;5.864;2023-03-04T13:28:04;5.47;;;1.45;;
48203;SDS011;33994;50.998;5.864;2023-03-04T13:31:28;5.78;;;3.08;;
48203;SDS011;33994;50.998;5.864;2023-03-04T13:34:41;4.53;;;1.85;;
48203;SDS011;33994;50.998;5.864;2023-03-04T13:37:56;4.82;;;1.60;;
48203;SDS011;33994;50.998;5.864;2023-03-04T13:41:10;4.53;;;1.58;;
48203;SDS011;33994;50.998;5.864;2023-03-04T13:48:00;14.05;;;3.00;;
48203;SDS011;33994;50.998;5.864;2023-03-04T13:51:11;5.68;;;1.40;;
48203;SDS011;33994;50.998;5.864;2023-03-04T13:54:20;4.18;;;1.73;;
48203;SDS011;33994;50.998;5.864;2023-03-04T13:57:28;4.00;;;1.73;;
48203;SDS011;33994;50.998;5.864;2023-03-04T14:00:32;4.82;;;1.80;;
48203;SDS011;33994;50.998;5.864;2023-03-04T14:03:38;7.78;;;2.38;;
48203;SDS011;33994;50.998;5.864;2023-03-04T14:06:41;9.23;;;2.67;;
48203;SDS011;33994;50.998;5.864;2023-03-04T14:09:52;7.05;;;2.38;;
48203;SDS011;33994;50.998;5.864;2023-03-04T14:12:58;5.82;;;2.42;;
48203;SDS011;33994;50.998;5.864;2023-03-04T14:16:02;5.25;;;2.30;;
48203;SDS011;33994;50.998;5.864;2023-03-04T14:19:11;7.55;;;2.40;;
48203;SDS011;33994;50.998;5.864;2023-03-04T14:22:18;8.75;;;2.78;;
48203;SDS011;33994;50.998;5.864;2023-03-04T14:25:24;13.07;;;2.78;;
48203;SDS011;33994;50.998;5.864;2023-03-04T14:28:30;8.32;;;2.88;;
48203;SDS011;33994;50.998;5.864;2023-03-04T14:31:33;7.97;;;2.67;;
48203;SDS011;33994;50.998;5.864;2023-03-04T14:34:37;7.47;;;2.92;;
48203;SDS011;33994;50.998;5.864;2023-03-04T14:37:41;9.23;;;2.90;;
48203;SDS011;33994;50.998;5.864;2023-03-04T14:40:51;6.50;;;2.70;;
48203;SDS011;33994;50.998;5.864;2023-03-04T14:44:01;4.95;;;2.50;;
48203;SDS011;33994;50.998;5.864;2023-03-04T14:47:08;9.30;;;3.20;;
48203;SDS011;33994;50.998;5.864;2023-03-04T14:50:16;10.07;;;2.72;;
48203;SDS011;33994;50.998;5.864;2023-03-04T14:53:21;7.07;;;2.50;;
48203;SDS011;33994;50.998;5.864;2023-03-04T14:56:26;5.05;;;2.78;;
48203;SDS011;33994;50.998;5.864;2023-03-04T14:59:32;5.93;;;3.20;;
48203;SDS011;33994;50.998;5.864;2023-03-04T15:02:37;4.60;;;2.97;;
48203;SDS011;33994;50.998;5.864;2023-03-04T15:05:41;7.93;;;2.90;;
48203;SDS011;33994;50.998;5.864;2023-03-04T15:08:44;5.78;;;2.85;;
48203;SDS011;33994;50.998;5.864;2023-03-04T15:11:49;7.55;;;3.67;;
48203;SDS011;33994;50.998;5.864;2023-03-04T15:14:56;7.05;;;3.30;;
48203;SDS011;33994;50.998;5.864;2023-03-04T15:18:01;5.97;;;3.25;;
48203;SDS011;33994;50.998;5.864;2023-03-04T15:21:27;7.43;;;3.05;;
48203;SDS011;33994;50.998;5.864;2023-03-04T15:24:33;3.45;;;2.60;;
48203;SDS011;33994;50.998;5.864;2023-03-04T15:27:35;7.85;;;3.35;;
48203;SDS011;33994;50.998;5.864;2023-03-04T15:30:40;9.35;;;4.07;;
48203;SDS011;33994;50.998;5.864;2023-03-04T15:33:43;6.75;;;3.35;;
48203;SDS011;33994;50.998;5.864;2023-03-04T15:36:47;6.32;;;3.47;;
48203;SDS011;33994;50.998;5.864;2023-03-04T15:39:52;11.35;;;3.38;;
48203;SDS011;33994;50.998;5.864;2023-03-04T15:42:59;5.05;;;2.97;;
48203;SDS011;33994;50.998;5.864;2023-03-04T15:46:05;6.00;;;3.30;;
48203;SDS011;33994;50.998;5.864;2023-03-04T15:49:08;4.60;;;3.10;;
48203;SDS011;33994;50.998;5.864;2023-03-04T15:52:12;9.32;;;3.10;;
48203;SDS011;33994;50.998;5.864;2023-03-04T15:55:18;4.65;;;2.88;;
48203;SDS011;33994;50.998;5.864;2023-03-04T15:58:22;4.97;;;3.47;;
48203;SDS011;33994;50.998;5.864;2023-03-04T16:01:28;9.55;;;4.00;;
48203;SDS011;33994;50.998;5.864;2023-03-04T16:04:31;10.10;;;4.07;;
48203;SDS011;33994;50.998;5.864;2023-03-04T16:07:34;9.15;;;3.83;;
48203;SDS011;33994;50.998;5.864;2023-03-04T16:10:38;8.35;;;3.60;;
48203;SDS011;33994;50.998;5.864;2023-03-04T16:13:42;8.65;;;4.10;;
48203;SDS011;33994;50.998;5.864;2023-03-04T16:16:46;7.00;;;3.88;;
48203;SDS011;33994;50.998;5.864;2023-03-04T16:19:49;10.60;;;3.47;;
48203;SDS011;33994;50.998;5.864;2023-03-04T16:22:53;9.00;;;3.80;;
48203;SDS011;33994;50.998;5.864;2023-03-04T16:25:58;8.93;;;3.55;;
48203;SDS011;33994;50.998;5.864;2023-03-04T16:29:02;7.80;;;3.63;;
48203;SDS011;33994;50.998;5.864;2023-03-04T16:32:06;7.70;;;4.15;;
48203;SDS011;33994;50.998;5.864;2023-03-04T16:35:11;7.35;;;4.07;;
48203;SDS011;33994;50.998;5.864;2023-03-04T16:38:20;6.25;;;3.88;;
48203;SDS011;33994;50.998;5.864;2023-03-04T16:41:26;8.23;;;4.43;;
48203;SDS011;33994;50.998;5.864;2023-03-04T16:44:30;6.10;;;3.80;;
48203;SDS011;33994;50.998;5.864;2023-03-04T16:47:35;8.63;;;4.22;;
48203;SDS011;33994;50.998;5.864;2023-03-04T16:50:38;10.02;;;3.90;;
48203;SDS011;33994;50.998;5.864;2023-03-04T16:53:42;6.82;;;4.85;;
48203;SDS011;33994;50.998;5.864;2023-03-04T16:56:49;10.52;;;5.50;;
48203;SDS011;33994;50.998;5.864;2023-03-04T16:59:51;12.05;;;5.97;;
48203;SDS011;33994;50.998;5.864;2023-03-04T17:02:57;8.98;;;5.20;;
48203;SDS011;33994;50.998;5.864;2023-03-04T17:06:01;9.98;;;5.10;;
48203;SDS011;33994;50.998;5.864;2023-03-04T17:09:04;9.85;;;4.97;;
48203;SDS011;33994;50.998;5.864;2023-03-04T17:12:08;11.32;;;5.55;;
48203;SDS011;33994;50.998;5.864;2023-03-04T17:15:14;11.88;;;5.80;;
48203;SDS011;33994;50.998;5.864;2023-03-04T17:18:19;11.90;;;7.60;;
48203;SDS011;33994;50.998;5.864;2023-03-04T17:21:23;16.60;;;6.60;;
48203;SDS011;33994;50.998;5.864;2023-03-04T17:24:27;14.40;;;6.00;;
48203;SDS011;33994;50.998;5.864;2023-03-04T17:27:31;15.65;;;6.88;;
48203;SDS011;33994;50.998;5.864;2023-03-04T17:30:34;10.75;;;6.80;;
48203;SDS011;33994;50.998;5.864;2023-03-04T17:33:39;12.30;;;7.57;;
48203;SDS011;33994;50.998;5.864;2023-03-04T17:36:42;11.68;;;7.10;;
48203;SDS011;33994;50.998;5.864;2023-03-04T17:39:46;10.52;;;6.68;;
48203;SDS011;33994;50.998;5.864;2023-03-04T17:42:49;10.45;;;7.18;;
48203;SDS011;33994;50.998;5.864;2023-03-04T17:46:00;12.35;;;6.93;;
48203;SDS011;33994;50.998;5.864;2023-03-04T17:49:06;11.57;;;7.63;;
48203;SDS011;33994;50.998;5.864;2023-03-04T17:52:09;12.10;;;5.65;;
48203;SDS011;33994;50.998;5.864;2023-03-04T17:55:13;11.18;;;6.05;;
48203;SDS011;33994;50.998;5.864;2023-03-04T17:58:16;12.43;;;5.82;;
48203;SDS011;33994;50.998;5.864;2023-03-04T18:01:19;12.57;;;5.50;;
48203;SDS011;33994;50.998;5.864;2023-03-04T18:04:23;10.95;;;5.85;;
48203;SDS011;33994;50.998;5.864;2023-03-04T18:07:27;15.10;;;5.30;;
48203;SDS011;33994;50.998;5.864;2023-03-04T18:10:30;8.20;;;3.40;;
48203;SDS011;33994;50.998;5.864;2023-03-04T18:13:35;16.50;;;3.63;;
48203;SDS011;33994;50.998;5.864;2023-03-04T18:16:39;8.15;;;3.20;;
48203;SDS011;33994;50.998;5.864;2023-03-04T18:19:43;12.63;;;3.28;;
48203;SDS011;33994;50.998;5.864;2023-03-04T18:22:46;8.52;;;2.40;;
48203;SDS011;33994;50.998;5.864;2023-03-04T18:25:49;16.63;;;2.97;;
48203;SDS011;33994;50.998;5.864;2023-03-04T18:28:53;13.57;;;2.78;;
48203;SDS011;33994;50.998;5.864;2023-03-04T18:31:57;16.25;;;2.75;;
48203;SDS011;33994;50.998;5.864;2023-03-04T18:35:01;8.38;;;1.95;;
48203;SDS011;33994;50.998;5.864;2023-03-04T18:38:04;11.10;;;2.22;;
48203;SDS011;33994;50.998;5.864;2023-03-04T18:41:08;7.47;;;2.08;;